CMA CGM Indus — CQII9 — position and weather

sailwx.info

Track history (hours):
 
Tides and Currents Weather Stations Pressure Air Temp Water Temp Dewpoint Dewpoint Depression Visibility Wind Speed Wind Dir Waves Ship Positions

CMA CGM Indus

Last reported at 2017-Sep-28 12:39 UTC. Time now 2017-Oct-17 22:31 UTC.
Position N 35°60' W 005°15'.
Warning: this ship's position is 19 days out of date.

Length 300 m; draft 12.2 m.

Type: Ship (hazmat cat A). MMSI: 255805973.

Date/timePositionNaut miles runAvg speedWind from/ knotsBaromVisibWave heightAir tempDewpointWater temp
2017-Sep-28 12:39N 35°60' W 005°15'218.1
2017-Sep-28 12:31N 35°59' W 005°17'918.9
2017-Sep-28 12:01N 35°57' W 005°29'15517.2
2017-Sep-28 02:58N 35°57' W 008°41'817.7
2017-Sep-28 02:31N 35°58' W 008°51'918.0
2017-Sep-28 01:59N 35°58' W 009°02'817.6
2017-Sep-28 01:31N 35°60' W 009°13'917.5
2017-Sep-28 01:01N 36°01' W 009°23'917.5
2017-Sep-28 00:31N 36°03' W 009°34'917.4
2017-Sep-28 00:01N 36°04' W 009°44'917.1
2017-Sep-27 23:31N 36°06' W 009°55'917.2
2017-Sep-27 23:01N 36°07' W 010°05'1117.4
2017-Sep-27 22:23N 36°09' W 010°19'717.3
2017-Sep-27 22:00N 36°10' W 010°27'3917.7
2017-Sep-27 19:46N 36°17' W 011°15'517.8
2017-Sep-27 19:30N 36°18' W 011°21'917.9
2017-Sep-27 19:00N 36°19' W 011°32'917.8
2017-Sep-27 18:30N 36°21' W 011°43'57817.9
2017-Sep-26 10:09N 37°58' W 023°37'317.2
2017-Sep-26 09:58N 37°59' W 023°41'815.6
2017-Sep-26 09:29N 38°00' W 023°51'816.4
2017-Sep-26 09:00N 38°01' W 024°01'918.2
2017-Sep-26 08:30N 38°03' W 024°12'918.0
2017-Sep-26 08:00N 38°04' W 024°23'918.1
2017-Sep-26 07:31N 38°06' W 024°34'917.8
2017-Sep-26 07:00N 38°07' W 024°46'918.2
2017-Sep-26 06:30N 38°09' W 024°57'918.1
2017-Sep-26 06:01N 38°09' W 025°09'917.8
2017-Sep-26 05:30N 38°09' W 025°20'917.9
2017-Sep-26 05:00N 38°09' W 025°31'917.7
2017-Sep-26 04:30N 38°09' W 025°43'917.7
2017-Sep-26 04:00N 38°09' W 025°54'917.8
2017-Sep-26 03:30N 38°09' W 026°05'917.7
2017-Sep-26 03:00N 38°09' W 026°16'918.2
2017-Sep-26 02:30N 38°09' W 026°28'918.0
2017-Sep-26 02:00N 38°09' W 026°39'918.3
2017-Sep-26 01:30N 38°10' W 026°51'918.5
2017-Sep-26 01:00N 38°09' W 027°03'918.2
2017-Sep-26 00:30N 38°09' W 027°14'917.9
2017-Sep-26 00:00N 38°09' W 027°26'917.6
2017-Sep-25 23:29N 38°09' W 027°37'917.8
2017-Sep-25 23:00N 38°09' W 027°48'918.1
2017-Sep-25 22:30N 38°09' W 027°60'918.3
2017-Sep-25 22:00N 38°09' W 028°11'918.2
2017-Sep-25 21:30N 38°10' W 028°23'918.1
2017-Sep-25 21:00N 38°10' W 028°35'918.1
2017-Sep-25 20:30N 38°11' W 028°46'918.3
2017-Sep-25 20:00N 38°12' W 028°58'918.4
2017-Sep-25 19:30N 38°12' W 029°09'918.4
2017-Sep-25 19:00N 38°13' W 029°21'918.4
2017-Sep-25 18:30N 38°14' W 029°33'918.3
2017-Sep-25 18:00N 38°15' W 029°44'918.4
2017-Sep-25 17:30N 38°15' W 029°56'918.1
2017-Sep-25 17:00N 38°16' W 030°07'917.6
2017-Sep-25 16:30N 38°16' W 030°19'918.0
2017-Sep-25 16:00N 38°16' W 030°30'918.1
2017-Sep-25 15:29N 38°17' W 030°42'817.6
2017-Sep-25 15:00N 38°17' W 030°53'917.1
2017-Sep-25 14:30N 38°17' W 031°04'1217.9
2017-Sep-25 13:49N 38°18' W 031°19'917.8
2017-Sep-25 13:19N 38°18' W 031°31'1217.9
2017-Sep-25 12:37N 38°19' W 031°47'318.0
2017-Sep-25 12:29N 38°19' W 031°50'1117.8
2017-Sep-25 11:54N 38°19' W 032°03'  
2017-Sep-19 15:12N 31°57' W 079°46'417.4
2017-Sep-19 15:00N 31°57' W 079°50'918.0
2017-Sep-19 14:30N 31°57' W 080°01'918.1
2017-Sep-19 14:00N 31°57' W 080°11'918.2
2017-Sep-19 13:30N 31°57' W 080°22'918.5
2017-Sep-19 13:00N 31°56' W 080°33'815.6
2017-Sep-19 12:30N 31°57' W 080°42'713.4
2017-Sep-19 12:00N 32°01' W 080°48'611.0
2017-Sep-19 11:30N 32°02' W 080°55'5 9.0
2017-Sep-19 11:00N 32°05' W 080°59'4 7.1
2017-Sep-19 10:29N 32°05' W 081°03'2 5.1
2017-Sep-19 10:00N 32°06' W 081°06'2 4.0
2017-Sep-19 09:30N 32°07' W 081°08'0 0.5
2017-Sep-19 08:56N 32°07' W 081°08'0 0.0
2017-Sep-19 08:19N 32°07' W 081°08'0 0.0
2017-Sep-19 07:55N 32°07' W 081°08'0 0.0
2017-Sep-19 07:25N 32°07' W 081°08'0 0.0
2017-Sep-19 06:49N 32°07' W 081°08'0 0.0
2017-Sep-19 06:28N 32°07' W 081°08'0 0.0
2017-Sep-19 06:00N 32°07' W 081°08'0 0.0
2017-Sep-19 05:30N 32°07' W 081°08'0 0.0
2017-Sep-19 05:00N 32°07' W 081°08'0 0.0
2017-Sep-19 04:30N 32°07' W 081°08'0 0.0
2017-Sep-19 03:59N 32°07' W 081°08'0 0.0
2017-Sep-19 03:23N 32°07' W 081°08'0 0.0
2017-Sep-19 02:59N 32°07' W 081°08'0 0.0
2017-Sep-19 02:29N 32°07' W 081°08'0 0.0
2017-Sep-19 01:59N 32°07' W 081°08'0 0.0
2017-Sep-19 01:28N 32°07' W 081°08'0 0.0
2017-Sep-19 00:58N 32°07' W 081°08'0 0.0
2017-Sep-19 00:28N 32°07' W 081°08'0 0.0
2017-Sep-18 23:58N 32°07' W 081°08'0 0.0
2017-Sep-18 23:21N 32°07' W 081°08'0 0.0
2017-Sep-18 22:57N 32°07' W 081°08'0 0.0
2017-Sep-18 22:27N 32°07' W 081°08'0 0.0
2017-Sep-18 21:57N 32°07' W 081°08'0 0.0
2017-Sep-18 21:27N 32°07' W 081°08'0 0.0
2017-Sep-18 20:50N 32°07' W 081°08'0 0.0
2017-Sep-18 20:26N 32°07' W 081°08'0 0.0
2017-Sep-18 19:50N 32°07' W 081°08'0 0.0
2017-Sep-18 19:28N 32°07' W 081°08'0 0.0
2017-Sep-18 18:58N 32°07' W 081°08'0 0.0
2017-Sep-18 18:27N 32°07' W 081°08'0 0.0
2017-Sep-18 17:57N 32°07' W 081°08'0 0.0
2017-Sep-18 17:27N 32°07' W 081°08'0 0.0
2017-Sep-18 16:57N 32°07' W 081°08'0 0.0
2017-Sep-18 16:27N 32°07' W 081°08'0 0.0
2017-Sep-18 15:56N 32°07' W 081°08'0 0.0
2017-Sep-18 15:26N 32°07' W 081°08'0 0.0
2017-Sep-18 14:56N 32°07' W 081°08'0 0.0
2017-Sep-18 14:26N 32°07' W 081°08'0 0.0
2017-Sep-18 13:55N 32°07' W 081°08'0 0.0
2017-Sep-18 13:25N 32°07' W 081°08'0 0.0
2017-Sep-18 12:58N 32°07' W 081°08'  
Track history (hours):
 
Tides and Currents Weather Stations Pressure Air Temp Water Temp Dewpoint Dewpoint Depression Visibility Wind Speed Wind Dir Waves Ship Positions

CMA CGM Indus

Last reported at 2017-Sep-28 12:39 UTC. Time now 2017-Oct-17 22:31 UTC.
Position N 35°60' W 005°15'.
Warning: this ship's position is 19 days out of date.

Length 300 m; draft 12.2 m.

Type: Ship (hazmat cat A). MMSI: 255805973.

Date/timePositionNaut miles runAvg speedWind from/ knotsBaromVisibWave heightAir tempDewpointWater temp
2017-Sep-28 12:39N 35°60' W 005°15'218.1
2017-Sep-28 12:31N 35°59' W 005°17'918.9
2017-Sep-28 12:01N 35°57' W 005°29'15517.2
2017-Sep-28 02:58N 35°57' W 008°41'817.7
2017-Sep-28 02:31N 35°58' W 008°51'918.0
2017-Sep-28 01:59N 35°58' W 009°02'817.6
2017-Sep-28 01:31N 35°60' W 009°13'917.5
2017-Sep-28 01:01N 36°01' W 009°23'917.5
2017-Sep-28 00:31N 36°03' W 009°34'917.4
2017-Sep-28 00:01N 36°04' W 009°44'917.1
2017-Sep-27 23:31N 36°06' W 009°55'917.2
2017-Sep-27 23:01N 36°07' W 010°05'1117.4
2017-Sep-27 22:23N 36°09' W 010°19'717.3
2017-Sep-27 22:00N 36°10' W 010°27'3917.7
2017-Sep-27 19:46N 36°17' W 011°15'517.8
2017-Sep-27 19:30N 36°18' W 011°21'917.9
2017-Sep-27 19:00N 36°19' W 011°32'917.8
2017-Sep-27 18:30N 36°21' W 011°43'57817.9
2017-Sep-26 10:09N 37°58' W 023°37'317.2
2017-Sep-26 09:58N 37°59' W 023°41'815.6
2017-Sep-26 09:29N 38°00' W 023°51'816.4
2017-Sep-26 09:00N 38°01' W 024°01'918.2
2017-Sep-26 08:30N 38°03' W 024°12'918.0
2017-Sep-26 08:00N 38°04' W 024°23'918.1
2017-Sep-26 07:31N 38°06' W 024°34'917.8
2017-Sep-26 07:00N 38°07' W 024°46'918.2
2017-Sep-26 06:30N 38°09' W 024°57'918.1
2017-Sep-26 06:01N 38°09' W 025°09'917.8
2017-Sep-26 05:30N 38°09' W 025°20'917.9
2017-Sep-26 05:00N 38°09' W 025°31'917.7
2017-Sep-26 04:30N 38°09' W 025°43'917.7
2017-Sep-26 04:00N 38°09' W 025°54'917.8
2017-Sep-26 03:30N 38°09' W 026°05'917.7
2017-Sep-26 03:00N 38°09' W 026°16'918.2
2017-Sep-26 02:30N 38°09' W 026°28'918.0
2017-Sep-26 02:00N 38°09' W 026°39'918.3
2017-Sep-26 01:30N 38°10' W 026°51'918.5
2017-Sep-26 01:00N 38°09' W 027°03'918.2
2017-Sep-26 00:30N 38°09' W 027°14'917.9
2017-Sep-26 00:00N 38°09' W 027°26'917.6
2017-Sep-25 23:29N 38°09' W 027°37'917.8
2017-Sep-25 23:00N 38°09' W 027°48'918.1
2017-Sep-25 22:30N 38°09' W 027°60'918.3
2017-Sep-25 22:00N 38°09' W 028°11'918.2
2017-Sep-25 21:30N 38°10' W 028°23'918.1
2017-Sep-25 21:00N 38°10' W 028°35'918.1
2017-Sep-25 20:30N 38°11' W 028°46'918.3
2017-Sep-25 20:00N 38°12' W 028°58'918.4
2017-Sep-25 19:30N 38°12' W 029°09'918.4
2017-Sep-25 19:00N 38°13' W 029°21'918.4
2017-Sep-25 18:30N 38°14' W 029°33'918.3
2017-Sep-25 18:00N 38°15' W 029°44'918.4
2017-Sep-25 17:30N 38°15' W 029°56'918.1
2017-Sep-25 17:00N 38°16' W 030°07'917.6
2017-Sep-25 16:30N 38°16' W 030°19'918.0
2017-Sep-25 16:00N 38°16' W 030°30'918.1
2017-Sep-25 15:29N 38°17' W 030°42'817.6
2017-Sep-25 15:00N 38°17' W 030°53'917.1
2017-Sep-25 14:30N 38°17' W 031°04'1217.9
2017-Sep-25 13:49N 38°18' W 031°19'917.8
2017-Sep-25 13:19N 38°18' W 031°31'1217.9
2017-Sep-25 12:37N 38°19' W 031°47'318.0
2017-Sep-25 12:29N 38°19' W 031°50'1117.8
2017-Sep-25 11:54N 38°19' W 032°03'  
2017-Sep-19 15:12N 31°57' W 079°46'417.4
2017-Sep-19 15:00N 31°57' W 079°50'918.0
2017-Sep-19 14:30N 31°57' W 080°01'918.1
2017-Sep-19 14:00N 31°57' W 080°11'918.2
2017-Sep-19 13:30N 31°57' W 080°22'918.5
2017-Sep-19 13:00N 31°56' W 080°33'815.6
2017-Sep-19 12:30N 31°57' W 080°42'713.4
2017-Sep-19 12:00N 32°01' W 080°48'611.0
2017-Sep-19 11:30N 32°02' W 080°55'5 9.0
2017-Sep-19 11:00N 32°05' W 080°59'4 7.1
2017-Sep-19 10:29N 32°05' W 081°03'2 5.1
2017-Sep-19 10:00N 32°06' W 081°06'2 4.0
2017-Sep-19 09:30N 32°07' W 081°08'0 0.5
2017-Sep-19 08:56N 32°07' W 081°08'0 0.0
2017-Sep-19 08:19N 32°07' W 081°08'0 0.0
2017-Sep-19 07:55N 32°07' W 081°08'0 0.0
2017-Sep-19 07:25N 32°07' W 081°08'0 0.0
2017-Sep-19 06:49N 32°07' W 081°08'0 0.0
2017-Sep-19 06:28N 32°07' W 081°08'0 0.0
2017-Sep-19 06:00N 32°07' W 081°08'0 0.0
2017-Sep-19 05:30N 32°07' W 081°08'0 0.0
2017-Sep-19 05:00N 32°07' W 081°08'0 0.0
2017-Sep-19 04:30N 32°07' W 081°08'0 0.0
2017-Sep-19 03:59N 32°07' W 081°08'0 0.0
2017-Sep-19 03:23N 32°07' W 081°08'0 0.0
2017-Sep-19 02:59N 32°07' W 081°08'0 0.0
2017-Sep-19 02:29N 32°07' W 081°08'0 0.0
2017-Sep-19 01:59N 32°07' W 081°08'0 0.0
2017-Sep-19 01:28N 32°07' W 081°08'0 0.0
2017-Sep-19 00:58N 32°07' W 081°08'0 0.0
2017-Sep-19 00:28N 32°07' W 081°08'0 0.0
2017-Sep-18 23:58N 32°07' W 081°08'0 0.0
2017-Sep-18 23:21N 32°07' W 081°08'0 0.0
2017-Sep-18 22:57N 32°07' W 081°08'0 0.0
2017-Sep-18 22:27N 32°07' W 081°08'0 0.0
2017-Sep-18 21:57N 32°07' W 081°08'0 0.0
2017-Sep-18 21:27N 32°07' W 081°08'0 0.0
2017-Sep-18 20:50N 32°07' W 081°08'0 0.0
2017-Sep-18 20:26N 32°07' W 081°08'0 0.0
2017-Sep-18 19:50N 32°07' W 081°08'0 0.0
2017-Sep-18 19:28N 32°07' W 081°08'0 0.0
2017-Sep-18 18:58N 32°07' W 081°08'0 0.0
2017-Sep-18 18:27N 32°07' W 081°08'0 0.0
2017-Sep-18 17:57N 32°07' W 081°08'0 0.0
2017-Sep-18 17:27N 32°07' W 081°08'0 0.0
2017-Sep-18 16:57N 32°07' W 081°08'0 0.0
2017-Sep-18 16:27N 32°07' W 081°08'0 0.0
2017-Sep-18 15:56N 32°07' W 081°08'0 0.0
2017-Sep-18 15:26N 32°07' W 081°08'0 0.0
2017-Sep-18 14:56N 32°07' W 081°08'0 0.0
2017-Sep-18 14:26N 32°07' W 081°08'0 0.0
2017-Sep-18 13:55N 32°07' W 081°08'0 0.0
2017-Sep-18 13:25N 32°07' W 081°08'0 0.0
2017-Sep-18 12:58N 32°07' W 081°08'  

Dump ship's entire track history